createdAt,value
2018-10-02T00:02:27.379Z,8.21
2018-10-02T00:04:55.815Z,8.47
2018-10-02T00:07:24.330Z,8.53
2018-10-02T00:09:52.968Z,8.24
2018-10-02T00:12:26.470Z,8.25
2018-10-02T00:14:54.941Z,8.19
2018-10-02T00:17:23.358Z,7.91
2018-10-02T00:19:51.803Z,7.82
2018-10-02T00:22:20.457Z,7.80
2018-10-02T00:24:48.870Z,7.70
2018-10-02T00:27:17.258Z,7.49
2018-10-02T00:29:45.711Z,7.46
2018-10-02T00:32:14.289Z,7.31
2018-10-02T00:34:42.703Z,7.38
2018-10-02T00:37:11.423Z,7.33
2018-10-02T00:39:39.932Z,7.42
2018-10-02T00:42:08.686Z,7.24
2018-10-02T00:44:37.124Z,7.16
2018-10-02T00:47:05.570Z,7.16
2018-10-02T00:49:34.147Z,6.88
2018-10-02T00:52:02.787Z,6.63
2018-10-02T00:54:31.202Z,6.56
2018-10-02T00:56:59.690Z,6.42
2018-10-02T00:59:28.203Z,6.38
2018-10-02T01:01:56.716Z,6.27
2018-10-02T01:04:25.288Z,6.17
2018-10-02T01:06:53.714Z,6.30
2018-10-02T01:09:22.127Z,6.31
2018-10-02T01:11:50.551Z,6.31
2018-10-02T01:14:19.171Z,6.54
2018-10-02T01:16:47.654Z,6.64
2018-10-02T01:19:16.251Z,6.65
2018-10-02T01:21:44.770Z,7.01
2018-10-02T01:24:13.247Z,6.91
2018-10-02T01:26:41.655Z,7.01
2018-10-02T01:29:10.162Z,7.13
2018-10-02T01:31:38.622Z,7.38
2018-10-02T01:34:07.423Z,7.41
2018-10-02T01:36:36.091Z,7.74
2018-10-02T01:39:05.961Z,7.67
2018-10-02T01:41:34.458Z,7.72
2018-10-02T01:44:02.959Z,7.63
2018-10-02T01:46:31.368Z,7.63
2018-10-02T01:48:59.831Z,7.68
2018-10-02T01:51:28.347Z,7.73
2018-10-02T01:53:56.905Z,7.85
2018-10-02T01:56:25.394Z,7.72
2018-10-02T01:58:54.059Z,7.80
2018-10-02T02:01:22.467Z,7.50
2018-10-02T02:03:50.876Z,7.57
2018-10-02T02:06:19.436Z,7.71
2018-10-02T02:08:47.818Z,7.57
2018-10-02T02:11:16.258Z,7.49
2018-10-02T02:13:44.687Z,7.52
2018-10-02T02:16:13.119Z,7.34
2018-10-02T02:18:41.622Z,7.21
2018-10-02T02:21:10.200Z,7.59
2018-10-02T02:23:38.602Z,7.71
2018-10-02T02:26:07.043Z,7.34
2018-10-02T02:28:35.562Z,7.65
2018-10-02T02:31:04.059Z,7.61
2018-10-02T02:33:32.479Z,7.46
2018-10-02T02:36:01.156Z,7.31
2018-10-02T02:38:29.683Z,7.46
2018-10-02T02:40:58.078Z,7.41
2018-10-02T02:43:26.583Z,7.57
2018-10-02T02:45:55.051Z,7.58
2018-10-02T02:48:28.587Z,7.64
2018-10-02T02:51:02.027Z,7.79
2018-10-02T02:53:30.830Z,7.82
2018-10-02T02:55:59.291Z,7.66
2018-10-02T02:58:27.773Z,8.00
2018-10-02T03:00:56.343Z,7.78
2018-10-02T03:03:24.790Z,8.06
2018-10-02T03:05:53.364Z,8.13
2018-10-02T03:08:21.903Z,8.05
2018-10-02T03:10:50.368Z,7.89
2018-10-02T03:13:18.863Z,8.11
2018-10-02T03:15:47.478Z,8.10
2018-10-02T03:18:16.182Z,8.23
2018-10-02T03:20:44.767Z,8.24
2018-10-02T03:23:13.277Z,8.08
2018-10-02T03:25:41.886Z,8.38
2018-10-02T03:28:10.399Z,8.13
2018-10-02T03:30:39.103Z,8.15
2018-10-02T03:33:08.032Z,7.97
2018-10-02T03:35:36.643Z,8.05
2018-10-02T03:38:05.275Z,8.11
2018-10-02T03:40:33.719Z,7.99
2018-10-02T03:43:02.183Z,8.32
2018-10-02T03:45:30.622Z,8.00
2018-10-02T03:47:59.103Z,8.35
2018-10-02T03:50:27.621Z,8.42
2018-10-02T03:52:56.143Z,8.83
2018-10-02T03:55:24.562Z,8.79
2018-10-02T03:57:53.100Z,8.49
2018-10-02T04:00:21.612Z,8.31
2018-10-02T04:02:50.167Z,8.26
2018-10-02T04:05:18.774Z,8.20
2018-10-02T04:07:47.424Z,8.18
2018-10-02T04:10:15.928Z,8.11
2018-10-02T04:12:44.429Z,8.05
2018-10-02T04:15:13.043Z,7.93
2018-10-02T04:17:41.432Z,7.90
2018-10-02T04:20:09.935Z,7.84
2018-10-02T04:22:38.415Z,7.87
2018-10-02T04:25:07.098Z,7.89
2018-10-02T04:27:35.602Z,7.94
2018-10-02T04:30:04.369Z,7.97
2018-10-02T04:32:32.779Z,7.97
2018-10-02T04:35:01.274Z,8.21
2018-10-02T04:37:30.055Z,8.14
2018-10-02T04:39:58.463Z,7.96
2018-10-02T04:42:26.981Z,8.05
2018-10-02T04:44:55.843Z,7.93
2018-10-02T04:47:24.278Z,7.86
2018-10-02T04:49:52.861Z,7.83
2018-10-02T04:52:21.556Z,7.83
2018-10-02T04:54:50.086Z,7.83
2018-10-02T04:57:18.498Z,7.91
2018-10-02T04:59:47.124Z,7.75
2018-10-02T05:02:15.599Z,7.52
2018-10-02T05:04:43.994Z,7.65
2018-10-02T05:07:12.403Z,7.71
2018-10-02T05:09:40.918Z,7.70
2018-10-02T05:12:09.400Z,7.40
2018-10-02T05:14:38.196Z,7.61
2018-10-02T05:17:06.591Z,7.49
2018-10-02T05:19:34.998Z,7.42
2018-10-02T05:22:04.432Z,7.47
2018-10-02T05:24:33.355Z,7.55
2018-10-02T05:27:01.800Z,7.54
2018-10-02T05:29:30.515Z,7.69
2018-10-02T05:31:59.008Z,7.66
2018-10-02T05:34:27.539Z,7.58
2018-10-02T05:36:56.163Z,7.51
2018-10-02T05:39:25.086Z,7.53
2018-10-02T05:41:53.739Z,7.56
2018-10-02T05:44:22.459Z,7.63
2018-10-02T05:46:50.891Z,7.66
2018-10-02T05:49:19.404Z,7.73
2018-10-02T05:51:48.251Z,7.71
2018-10-02T05:54:16.701Z,7.76
2018-10-02T05:56:45.111Z,7.99
2018-10-02T05:59:13.866Z,7.99
2018-10-02T06:01:42.419Z,7.96
2018-10-02T06:04:10.851Z,7.93
2018-10-02T06:06:39.647Z,8.22
2018-10-02T06:09:10.862Z,8.32
2018-10-02T06:11:39.488Z,8.40
2018-10-02T06:14:08.444Z,8.48
2018-10-02T06:16:36.999Z,8.53
2018-10-02T06:19:05.543Z,8.60
2018-10-02T06:21:34.007Z,8.59
2018-10-02T06:24:02.487Z,8.58
2018-10-02T06:26:31.046Z,8.87
2018-10-02T06:28:59.624Z,8.84
2018-10-02T06:31:28.208Z,8.78
2018-10-02T06:33:56.733Z,9.05
2018-10-02T06:36:25.172Z,8.94
2018-10-02T06:38:53.720Z,9.09
2018-10-02T06:41:22.453Z,9.09
2018-10-02T06:43:51.013Z,9.09
2018-10-02T06:46:19.612Z,9.09
2018-10-02T06:48:48.187Z,9.22
2018-10-02T06:51:16.815Z,9.22
2018-10-02T06:53:45.416Z,9.17
2018-10-02T06:56:14.228Z,9.37
2018-10-02T06:58:42.940Z,9.49
2018-10-02T07:01:11.456Z,9.49
2018-10-02T07:03:40.120Z,9.56
2018-10-02T07:06:08.670Z,9.37
2018-10-02T07:08:37.259Z,9.41
2018-10-02T07:11:05.840Z,9.58
2018-10-02T07:13:34.333Z,9.55
2018-10-02T07:16:02.960Z,9.70
2018-10-02T07:18:31.687Z,9.66
2018-10-02T07:21:00.300Z,9.78
2018-10-02T07:23:28.828Z,9.87
2018-10-02T07:25:57.368Z,10.11
2018-10-02T07:28:25.904Z,9.83
2018-10-02T07:30:54.525Z,10.04
2018-10-02T07:33:22.999Z,10.09
2018-10-02T07:35:51.468Z,10.18
2018-10-02T07:38:20.156Z,10.39
2018-10-02T07:40:48.958Z,10.19
2018-10-02T07:43:17.472Z,10.18
2018-10-02T07:45:46.000Z,10.29
2018-10-02T07:48:14.762Z,10.27
2018-10-02T07:50:43.355Z,10.09
2018-10-02T07:53:11.876Z,10.24
2018-10-02T07:55:40.598Z,10.46
2018-10-02T07:58:09.061Z,10.28
2018-10-02T08:00:37.588Z,10.39
2018-10-02T08:03:06.157Z,10.36
2018-10-02T08:05:34.669Z,10.48
2018-10-02T08:08:03.154Z,10.35
2018-10-02T08:10:31.840Z,10.29
2018-10-02T08:13:00.348Z,10.56
2018-10-02T08:15:28.980Z,10.44
2018-10-02T08:17:57.989Z,10.45
2018-10-02T08:20:26.661Z,10.63
2018-10-02T08:22:55.432Z,10.45
2018-10-02T08:25:24.092Z,10.38
2018-10-02T08:27:52.576Z,10.45
2018-10-02T08:30:21.080Z,10.45
2018-10-02T08:32:49.739Z,10.33
2018-10-02T08:35:18.293Z,10.49
2018-10-02T08:37:46.753Z,10.57
2018-10-02T08:40:15.368Z,10.30
2018-10-02T08:42:43.892Z,10.24
2018-10-02T08:45:12.337Z,10.19
2018-10-02T08:47:41.125Z,10.23
2018-10-02T08:50:09.780Z,10.26
2018-10-02T08:52:38.428Z,10.54
2018-10-02T08:55:07.132Z,10.27
2018-10-02T08:57:35.705Z,10.35
2018-10-02T09:00:04.292Z,10.37
2018-10-02T09:02:33.045Z,10.37
2018-10-02T09:05:01.555Z,10.43
2018-10-02T09:07:30.077Z,10.66
2018-10-02T09:09:58.712Z,10.37
2018-10-02T09:12:27.274Z,10.61
2018-10-02T09:14:55.844Z,10.45
2018-10-02T09:17:24.680Z,10.72
2018-10-02T09:19:53.284Z,10.82
2018-10-02T09:22:24.901Z,10.75
2018-10-02T09:24:54.237Z,10.49
2018-10-02T09:27:22.714Z,10.35
2018-10-02T09:29:56.512Z,10.47
2018-10-02T09:32:30.185Z,10.48
2018-10-02T09:35:03.947Z,10.34
2018-10-02T09:37:37.823Z,10.71
2018-10-02T09:40:11.746Z,10.51
2018-10-02T09:42:45.469Z,10.45
2018-10-02T09:45:14.086Z,10.36
2018-10-02T09:47:42.757Z,10.43
2018-10-02T09:50:11.418Z,10.61
2018-10-02T09:52:40.063Z,10.70
2018-10-02T09:55:08.521Z,10.70
2018-10-02T09:57:37.017Z,10.95
2018-10-02T10:00:05.934Z,10.73
2018-10-02T10:02:36.173Z,10.53
2018-10-02T10:05:04.797Z,10.62
2018-10-02T10:07:38.369Z,10.74
2018-10-02T10:10:07.401Z,10.48
2018-10-02T10:12:35.897Z,10.31
2018-10-02T10:15:04.476Z,10.45
2018-10-02T10:17:32.956Z,10.45
2018-10-02T10:20:01.564Z,10.46
2018-10-02T10:22:30.314Z,10.41
2018-10-02T10:24:58.849Z,10.39
2018-10-02T10:27:27.525Z,10.35
2018-10-02T10:29:56.040Z,10.52
2018-10-02T10:32:24.520Z,10.38
2018-10-02T10:34:53.210Z,10.54
2018-10-02T10:37:21.912Z,10.58
2018-10-02T10:39:50.442Z,10.44
2018-10-02T10:42:19.068Z,10.34
2018-10-02T10:44:48.070Z,10.36
2018-10-02T10:47:18.692Z,10.33
2018-10-02T10:49:47.277Z,10.37
2018-10-02T10:52:15.940Z,10.55
2018-10-02T10:54:54.747Z,10.22
2018-10-02T10:57:23.197Z,10.36
2018-10-02T10:59:51.728Z,10.19
2018-10-02T11:02:20.302Z,10.29
2018-10-02T11:04:48.898Z,10.34
2018-10-02T11:07:17.528Z,10.33
2018-10-02T11:09:46.340Z,10.45
2018-10-02T11:12:14.968Z,10.55
2018-10-02T11:14:43.477Z,10.45
2018-10-02T11:17:12.256Z,10.26
2018-10-02T11:19:40.828Z,10.21
2018-10-02T11:22:16.876Z,10.52
2018-10-02T11:24:54.507Z,10.73
2018-10-02T11:27:23.064Z,10.57
2018-10-02T11:29:51.521Z,10.61
2018-10-02T11:32:20.020Z,10.52
2018-10-02T11:34:48.589Z,10.52
2018-10-02T11:37:17.080Z,10.46
2018-10-02T11:39:45.825Z,10.57
2018-10-02T11:42:14.387Z,10.73
2018-10-02T11:44:43.260Z,10.23
2018-10-02T11:47:15.501Z,10.33
2018-10-02T11:49:45.042Z,10.16
2018-10-02T11:52:13.512Z,10.18
2018-10-02T11:54:42.040Z,10.27
2018-10-02T11:57:10.517Z,10.28
2018-10-02T11:59:39.089Z,10.22
2018-10-02T12:02:08.007Z,10.26
2018-10-02T12:04:36.484Z,10.14
2018-10-02T12:07:05.121Z,10.16
2018-10-02T12:09:33.676Z,10.26
2018-10-02T12:12:02.219Z,10.52
2018-10-02T12:14:30.928Z,10.50
2018-10-02T12:16:59.225Z,10.35
2018-10-02T12:19:27.883Z,10.41
2018-10-02T12:21:56.534Z,10.67
2018-10-02T12:24:25.337Z,10.53
2018-10-02T12:26:53.848Z,10.53
2018-10-02T12:29:22.348Z,10.47
2018-10-02T12:31:50.916Z,10.33
2018-10-02T12:34:19.504Z,10.34
2018-10-02T12:36:48.017Z,10.45
2018-10-02T12:39:16.854Z,10.50
2018-10-02T12:41:47.416Z,10.83
2018-10-02T12:44:16.052Z,10.43
2018-10-02T12:46:44.549Z,10.55
2018-10-02T12:49:13.232Z,10.68
2018-10-02T12:51:41.806Z,10.77
2018-10-02T12:54:10.264Z,10.41
2018-10-02T12:56:38.908Z,10.36
2018-10-02T12:59:07.502Z,10.38
2018-10-02T13:01:35.996Z,10.82
2018-10-02T13:04:04.493Z,10.60
2018-10-02T13:06:32.964Z,10.60
2018-10-02T13:09:01.544Z,10.54
2018-10-02T13:11:30.121Z,10.76
2018-10-02T13:14:04.790Z,10.73
2018-10-02T13:16:33.514Z,10.64
2018-10-02T13:19:01.972Z,10.71
2018-10-02T13:21:30.488Z,10.47
2018-10-02T13:23:58.969Z,10.63
2018-10-02T13:26:27.648Z,10.78
2018-10-02T13:28:56.216Z,10.58
2018-10-02T13:31:24.744Z,10.64
2018-10-02T13:33:53.608Z,10.81
2018-10-02T13:36:22.091Z,10.74
2018-10-02T13:38:50.854Z,10.73
2018-10-02T13:41:19.388Z,10.86
2018-10-02T13:43:48.004Z,10.59
2018-10-02T13:46:16.652Z,10.66
2018-10-02T13:48:45.125Z,11.01
2018-10-02T13:51:13.669Z,10.88
2018-10-02T13:53:42.260Z,10.64
2018-10-02T13:56:10.821Z,10.74
2018-10-02T13:58:39.476Z,10.71
2018-10-02T14:01:07.963Z,10.87
2018-10-02T14:03:36.536Z,10.81
2018-10-02T14:06:04.988Z,10.84
2018-10-02T14:08:33.629Z,11.08
2018-10-02T14:11:02.433Z,11.02
2018-10-02T14:13:31.044Z,10.92
2018-10-02T14:16:00.038Z,10.97
2018-10-02T14:18:28.917Z,10.88
2018-10-02T14:20:57.570Z,10.93
2018-10-02T14:23:26.104Z,11.29
2018-10-02T14:25:54.528Z,11.20
2018-10-02T14:28:23.154Z,11.07
2018-10-02T14:30:51.664Z,11.22
2018-10-02T14:33:20.341Z,11.04
2018-10-02T14:35:48.872Z,11.08
2018-10-02T14:38:17.368Z,11.43
2018-10-02T14:40:46.076Z,11.43
2018-10-02T14:43:14.658Z,11.12
2018-10-02T14:45:43.605Z,10.96
2018-10-02T14:48:12.073Z,11.03
2018-10-02T14:50:40.663Z,11.02
2018-10-02T14:53:09.304Z,11.12
2018-10-02T14:55:38.089Z,11.19
2018-10-02T14:58:06.980Z,11.29
2018-10-02T15:00:36.120Z,11.18
2018-10-02T15:03:04.616Z,11.10
2018-10-02T15:05:33.225Z,11.03
2018-10-02T15:08:01.836Z,11.15
2018-10-02T15:10:30.523Z,11.33
2018-10-02T15:12:59.168Z,11.25
2018-10-02T15:15:27.788Z,11.14
2018-10-02T15:17:56.327Z,11.11
2018-10-02T15:20:24.928Z,11.21
2018-10-02T15:22:53.522Z,11.19
2018-10-02T15:25:22.164Z,11.28
2018-10-02T15:27:50.783Z,11.30
2018-10-02T15:30:19.365Z,11.33
2018-10-02T15:32:48.575Z,11.13
2018-10-02T15:35:17.064Z,11.40
2018-10-02T15:37:45.633Z,11.20
2018-10-02T15:40:14.012Z,11.34
2018-10-02T15:42:43.037Z,11.48
2018-10-02T15:45:11.844Z,11.34
2018-10-02T15:47:40.454Z,11.30
2018-10-02T15:50:08.961Z,11.40
2018-10-02T15:52:37.584Z,11.18
2018-10-02T15:55:06.128Z,11.24
2018-10-02T15:57:34.990Z,11.44
2018-10-02T16:00:03.500Z,11.33
2018-10-02T16:02:32.007Z,11.44
2018-10-02T16:05:02.029Z,11.37
2018-10-02T16:19:13.641Z,11.31
2018-10-02T16:21:42.264Z,11.31
2018-10-02T16:24:10.808Z,11.46
2018-10-02T16:26:39.816Z,11.45
2018-10-02T16:29:08.436Z,11.19
2018-10-02T16:31:37.021Z,11.31
2018-10-02T16:34:06.285Z,11.40
2018-10-02T16:36:35.310Z,11.31
2018-10-02T16:39:04.941Z,11.31
2018-10-02T16:41:34.260Z,11.15
2018-10-02T16:44:02.857Z,11.22
2018-10-02T16:46:31.404Z,11.04
2018-10-02T16:49:00.410Z,11.19
2018-10-02T16:51:28.944Z,11.16
2018-10-02T16:53:57.987Z,11.12
2018-10-02T16:56:26.862Z,11.04
2018-10-02T16:58:55.453Z,11.01
2018-10-02T17:01:24.277Z,11.14
2018-10-02T17:03:57.722Z,11.14
2018-10-02T17:06:26.328Z,11.22
2018-10-02T17:08:54.972Z,11.13
2018-10-02T17:11:23.632Z,11.04
2018-10-02T17:13:52.333Z,11.04
2018-10-02T17:16:20.972Z,11.26
2018-10-02T17:18:49.760Z,11.14
2018-10-02T17:21:18.364Z,11.08
2018-10-02T17:23:46.993Z,10.99
2018-10-02T17:26:15.617Z,11.06
2018-10-02T17:28:44.208Z,10.99
2018-10-02T17:31:12.888Z,10.83
2018-10-02T17:33:41.557Z,10.98
2018-10-02T17:36:10.224Z,10.92
2018-10-02T17:38:39.529Z,10.99
2018-10-02T17:41:08.339Z,11.04
2018-10-02T17:43:38.225Z,11.03
2018-10-02T17:46:07.020Z,11.05
2018-10-02T17:48:35.692Z,11.17
2018-10-02T17:51:04.409Z,11.10
2018-10-02T17:53:33.049Z,11.09
2018-10-02T17:56:01.747Z,11.12
2018-10-02T17:58:30.416Z,11.08
2018-10-02T18:00:58.934Z,11.11
2018-10-02T18:03:27.597Z,11.23
2018-10-02T18:05:56.162Z,11.18
2018-10-02T18:08:24.832Z,11.18
2018-10-02T18:10:53.468Z,11.35
2018-10-02T18:13:22.013Z,11.12
2018-10-02T18:15:50.843Z,11.17
2018-10-02T18:18:19.540Z,11.14
2018-10-02T18:20:48.265Z,11.10
2018-10-02T18:23:16.983Z,11.15
2018-10-02T18:25:45.890Z,11.19
2018-10-02T18:28:14.469Z,11.18
2018-10-02T18:30:43.073Z,11.27
2018-10-02T18:33:11.885Z,11.13
2018-10-02T18:35:40.592Z,11.12
2018-10-02T18:38:09.337Z,11.36
2018-10-02T18:40:38.135Z,11.17
2018-10-02T18:43:06.920Z,11.08
2018-10-02T18:45:35.563Z,11.06
2018-10-02T18:48:04.309Z,11.08
2018-10-02T18:50:32.889Z,11.33
2018-10-02T18:53:02.029Z,11.21
2018-10-02T18:55:30.633Z,11.27
2018-10-02T18:57:59.182Z,11.36
2018-10-02T19:00:27.756Z,11.34
2018-10-02T19:02:56.486Z,11.37
2018-10-02T19:05:25.120Z,11.30
2018-10-02T19:07:54.060Z,11.20
2018-10-02T19:10:23.120Z,11.18
2018-10-02T19:12:52.122Z,11.28
2018-10-02T19:15:21.478Z,11.11
2018-10-02T19:17:50.358Z,11.08
2018-10-02T19:20:24.134Z,11.08
2018-10-02T19:22:53.658Z,11.29
2018-10-02T19:25:27.661Z,11.07
2018-10-02T19:27:57.070Z,11.02
2018-10-02T19:30:31.301Z,11.19
2018-10-02T19:33:00.739Z,11.01
2018-10-02T19:35:29.959Z,11.16
2018-10-02T19:38:03.995Z,11.11
2018-10-02T19:40:32.947Z,11.25
2018-10-02T19:43:02.041Z,11.17
2018-10-02T19:45:36.377Z,11.36
2018-10-02T19:48:07.743Z,11.26
2018-10-02T19:50:38.834Z,11.28
2018-10-02T19:53:07.899Z,11.31
2018-10-02T19:55:36.767Z,11.20
2018-10-02T19:58:05.785Z,11.29
2018-10-02T20:00:34.683Z,11.32
2018-10-02T20:03:03.872Z,11.04
2018-10-02T20:05:32.447Z,11.11
2018-10-02T20:08:02.753Z,11.16
2018-10-02T20:10:31.457Z,11.27
2018-10-02T20:13:00.611Z,11.29
2018-10-02T20:15:29.743Z,11.60
2018-10-02T20:17:58.631Z,11.42
2018-10-02T20:20:27.188Z,11.55
2018-10-02T20:22:55.800Z,11.55
2018-10-02T20:25:24.403Z,11.36
2018-10-02T20:27:53.078Z,11.29
2018-10-02T20:30:21.666Z,11.35
2018-10-02T20:32:50.295Z,11.50
2018-10-02T20:35:19.000Z,11.39
2018-10-02T20:37:47.540Z,11.32
2018-10-02T20:40:16.234Z,11.52
2018-10-02T20:42:44.792Z,11.51
2018-10-02T20:45:13.460Z,11.35
2018-10-02T20:47:42.078Z,11.32
2018-10-02T20:50:10.628Z,11.53
2018-10-02T20:52:39.357Z,11.32
2018-10-02T20:55:08.097Z,11.22
2018-10-02T20:57:36.754Z,11.27
2018-10-02T21:00:05.830Z,11.22
2018-10-02T21:02:34.524Z,11.30
2018-10-02T21:05:03.116Z,11.11
2018-10-02T21:07:31.641Z,11.13
2018-10-02T21:10:00.419Z,11.27
2018-10-02T21:12:28.952Z,11.42
2018-10-02T21:14:57.497Z,11.27
2018-10-02T21:17:26.091Z,11.47
2018-10-02T21:19:54.766Z,11.20
2018-10-02T21:22:23.366Z,11.19
2018-10-02T21:24:52.189Z,11.16
2018-10-02T21:27:20.820Z,11.18
2018-10-02T21:29:49.329Z,11.17
2018-10-02T21:32:18.276Z,11.26
2018-10-02T21:34:46.951Z,11.16
2018-10-02T21:37:15.448Z,11.29
2018-10-02T21:39:44.006Z,11.25
2018-10-02T21:42:12.872Z,11.07
2018-10-02T21:44:41.392Z,11.15
2018-10-02T21:47:10.032Z,11.16
2018-10-02T21:49:38.601Z,11.12
2018-10-02T21:52:07.374Z,11.20
2018-10-02T21:54:36.596Z,11.25
2018-10-02T21:57:05.271Z,11.33
2018-10-02T21:59:33.986Z,11.17
2018-10-02T22:02:06.221Z,11.16
2018-10-02T22:04:39.681Z,11.24
2018-10-02T22:07:13.058Z,11.26
2018-10-02T22:09:47.550Z,11.40
2018-10-02T22:12:16.431Z,11.30
2018-10-02T22:14:44.973Z,11.40
2018-10-02T22:17:13.680Z,11.50
2018-10-02T22:19:43.003Z,11.75
2018-10-02T22:22:11.793Z,11.53
2018-10-02T22:24:40.373Z,11.69
2018-10-02T22:27:14.594Z,11.53
2018-10-02T22:29:43.396Z,11.71
2018-10-02T22:32:11.963Z,11.75
2018-10-02T22:34:40.757Z,11.70
2018-10-02T22:37:09.368Z,11.63
2018-10-02T22:39:38.078Z,11.62
2018-10-02T22:42:06.783Z,11.61
2018-10-02T22:44:37.306Z,11.68
2018-10-02T22:47:06.068Z,11.65
2018-10-02T22:49:35.261Z,11.47
2018-10-02T22:52:04.205Z,11.58
2018-10-02T22:54:33.525Z,11.57
2018-10-02T22:57:02.161Z,11.45
2018-10-02T22:59:30.710Z,11.52
2018-10-02T23:01:59.425Z,11.54
2018-10-02T23:04:28.027Z,11.58
2018-10-02T23:06:56.693Z,11.46
2018-10-02T23:09:26.105Z,11.44
2018-10-02T23:11:54.772Z,11.40
2018-10-02T23:14:24.974Z,11.34
2018-10-02T23:16:53.629Z,11.52
2018-10-02T23:19:22.387Z,11.43
2018-10-02T23:21:50.936Z,11.53
2018-10-02T23:24:20.211Z,11.43
2018-10-02T23:26:49.084Z,11.46
2018-10-02T23:29:17.618Z,11.37
2018-10-02T23:31:46.649Z,11.48
2018-10-02T23:34:15.215Z,11.48
2018-10-02T23:36:43.961Z,11.51
2018-10-02T23:39:12.741Z,11.52
2018-10-02T23:41:41.312Z,11.76
2018-10-02T23:44:09.956Z,11.82
2018-10-02T23:46:38.649Z,11.75
2018-10-02T23:49:07.217Z,11.82
2018-10-02T23:51:35.920Z,11.78
2018-10-02T23:54:04.521Z,11.86
2018-10-02T23:56:33.131Z,11.90
2018-10-02T23:59:01.901Z,11.81
